APG344 RPVR-RPLL
Flight info
| Callsign | APG344 |
|---|---|
| Flight time | 0h 41m |
| Altitude | 26000 |
| Route | MINOR3B MINOR B473 LAIYA LAIYA3R |
| Aircraft | A320/M-SDE3FGHIRWY/LB1 |
Departure
| Time | 2026-05-05 05:47 |
|---|---|
| Airport | Roxas Airport (RPVR) |
Arrival
| Time | 2026-05-05 06:28 |
|---|---|
| Airport | Ninoy Aquino International Airport (RPLL) |
| Time | Latitude | Longitude | Altitude | Speed | Heading |
|---|---|---|---|---|---|
| 2026-05-05 05:38 | 11.60081 | 122.74927 | 20 ft | 0 kts | 266° |
| 2026-05-05 05:43 | 11.60083 | 122.74922 | 20 ft | 1 kts | 300° |
| 2026-05-05 05:43 | 11.60089 | 122.74919 | 20 ft | 0 kts | 350° |
| 2026-05-05 05:43 | 11.60094 | 122.74921 | 20 ft | 0 kts | 24° |
| 2026-05-05 05:43 | 11.60103 | 122.74925 | 20 ft | 1 kts | 25° |
| 2026-05-05 05:44 | 11.60119 | 122.74930 | 20 ft | 2 kts | 2° |
| 2026-05-05 05:44 | 11.60139 | 122.74925 | 20 ft | 3 kts | 339° |
| 2026-05-05 05:44 | 11.60167 | 122.74918 | 20 ft | 4 kts | 7° |
| 2026-05-05 05:44 | 11.60205 | 122.74926 | 20 ft | 5 kts | 15° |
| 2026-05-05 05:45 | 11.60250 | 122.74934 | 20 ft | 6 kts | 351° |
| 2026-05-05 05:45 | 11.60293 | 122.74905 | 20 ft | 8 kts | 311° |
| 2026-05-05 05:45 | 11.60335 | 122.74862 | 20 ft | 8 kts | 322° |
| 2026-05-05 05:45 | 11.60385 | 122.74825 | 20 ft | 9 kts | 336° |
| 2026-05-05 05:46 | 11.60443 | 122.74817 | 20 ft | 2 kts | 344° |
| 2026-05-05 05:46 | 11.60441 | 122.74810 | 20 ft | 1 kts | 193° |
| 2026-05-05 05:46 | 11.60421 | 122.74818 | 20 ft | 3 kts | 144° |
| 2026-05-05 05:46 | 11.60383 | 122.74847 | 20 ft | 23 kts | 144° |
| 2026-05-05 05:47 | 11.60015 | 122.75112 | 20 ft | 101 kts | 144° |
| 2026-05-05 05:47 | 11.59279 | 122.75651 | 75 ft | 152 kts | 140° |
| 2026-05-05 05:47 | 11.58424 | 122.76276 | 672 ft | 153 kts | 141° |
| 2026-05-05 05:47 | 11.57542 | 122.76891 | 1281 ft | 156 kts | 141° |
| 2026-05-05 05:48 | 11.56653 | 122.77509 | 1891 ft | 157 kts | 141° |
| 2026-05-05 05:48 | 11.55812 | 122.78211 | 2453 ft | 155 kts | 118° |
| 2026-05-05 05:48 | 11.55617 | 122.79237 | 2810 ft | 155 kts | 70° |
| 2026-05-05 05:48 | 11.56341 | 122.80061 | 3127 ft | 169 kts | 29° |
| 2026-05-05 05:49 | 11.57568 | 122.80227 | 3419 ft | 192 kts | 348° |
| 2026-05-05 05:49 | 11.58756 | 122.79447 | 3722 ft | 214 kts | 323° |
| 2026-05-05 05:49 | 11.60005 | 122.78493 | 3943 ft | 237 kts | 327° |
| 2026-05-05 05:49 | 11.61417 | 122.77439 | 4273 ft | 258 kts | 327° |
| 2026-05-05 05:50 | 11.62946 | 122.76337 | 4693 ft | 275 kts | 328° |
| 2026-05-05 05:50 | 11.64563 | 122.75193 | 5314 ft | 284 kts | 328° |
| 2026-05-05 05:50 | 11.66194 | 122.74038 | 6056 ft | 288 kts | 328° |
| 2026-05-05 05:50 | 11.67831 | 122.72876 | 6796 ft | 291 kts | 327° |
| 2026-05-05 05:51 | 11.69519 | 122.71675 | 7556 ft | 294 kts | 327° |
| 2026-05-05 05:51 | 11.71214 | 122.70467 | 8301 ft | 297 kts | 327° |
| 2026-05-05 05:51 | 11.72915 | 122.69254 | 9013 ft | 301 kts | 327° |
| 2026-05-05 05:51 | 11.74634 | 122.68027 | 9711 ft | 304 kts | 327° |
| 2026-05-05 05:52 | 11.76375 | 122.66784 | 10360 ft | 309 kts | 327° |
| 2026-05-05 05:52 | 11.78205 | 122.65479 | 10729 ft | 324 kts | 327° |
| 2026-05-05 05:52 | 11.80127 | 122.64108 | 11012 ft | 341 kts | 327° |
| 2026-05-05 05:52 | 11.82135 | 122.62672 | 11413 ft | 352 kts | 326° |
| 2026-05-05 05:53 | 11.84164 | 122.61223 | 12011 ft | 354 kts | 326° |
| 2026-05-05 05:53 | 11.86242 | 122.59735 | 12656 ft | 356 kts | 326° |
| 2026-05-05 05:53 | 11.88311 | 122.58255 | 13257 ft | 358 kts | 326° |
| 2026-05-05 05:53 | 11.90377 | 122.56776 | 13810 ft | 360 kts | 326° |
| 2026-05-05 05:54 | 11.92480 | 122.55270 | 14341 ft | 363 kts | 326° |
| 2026-05-05 05:54 | 11.94617 | 122.53740 | 14878 ft | 367 kts | 326° |
| 2026-05-05 05:54 | 11.96756 | 122.52209 | 15385 ft | 370 kts | 326° |
| 2026-05-05 05:54 | 11.98938 | 122.50646 | 15875 ft | 373 kts | 326° |
| 2026-05-05 05:55 | 12.01107 | 122.49093 | 16350 ft | 376 kts | 326° |
| 2026-05-05 05:55 | 12.03309 | 122.47517 | 16810 ft | 379 kts | 326° |
| 2026-05-05 05:55 | 12.05533 | 122.45924 | 17259 ft | 382 kts | 326° |
| 2026-05-05 05:55 | 12.07793 | 122.44306 | 17706 ft | 385 kts | 326° |
| 2026-05-05 05:56 | 12.10020 | 122.42710 | 18136 ft | 387 kts | 326° |
| 2026-05-05 05:56 | 12.12451 | 122.40968 | 18604 ft | 390 kts | 326° |
| 2026-05-05 05:56 | 12.14678 | 122.39372 | 19021 ft | 392 kts | 326° |
| 2026-05-05 05:56 | 12.16969 | 122.37729 | 19435 ft | 394 kts | 326° |
| 2026-05-05 05:57 | 12.19288 | 122.36066 | 19843 ft | 397 kts | 326° |
| 2026-05-05 05:57 | 12.21611 | 122.34399 | 20245 ft | 399 kts | 326° |
| 2026-05-05 05:57 | 12.23920 | 122.32742 | 20636 ft | 401 kts | 326° |
| 2026-05-05 05:57 | 12.26280 | 122.31048 | 21026 ft | 404 kts | 326° |
| 2026-05-05 05:58 | 12.28641 | 122.29353 | 21397 ft | 406 kts | 326° |
| 2026-05-05 05:58 | 12.30949 | 122.27722 | 21767 ft | 407 kts | 326° |
| 2026-05-05 05:58 | 12.33277 | 122.26050 | 22204 ft | 407 kts | 325° |
| 2026-05-05 05:58 | 12.35571 | 122.24350 | 22670 ft | 406 kts | 325° |
| 2026-05-05 05:59 | 12.37891 | 122.22693 | 23125 ft | 406 kts | 326° |
| 2026-05-05 05:59 | 12.40254 | 122.21058 | 23611 ft | 404 kts | 326° |
| 2026-05-05 05:59 | 12.42564 | 122.19470 | 24105 ft | 403 kts | 326° |
| 2026-05-05 05:59 | 12.44903 | 122.17858 | 24553 ft | 402 kts | 326° |
| 2026-05-05 06:00 | 12.47214 | 122.16260 | 24919 ft | 404 kts | 326° |
| 2026-05-05 06:00 | 12.49617 | 122.14596 | 25293 ft | 406 kts | 326° |
| 2026-05-05 06:00 | 12.51996 | 122.12946 | 25670 ft | 407 kts | 326° |
| 2026-05-05 06:00 | 12.54402 | 122.11276 | 25849 ft | 409 kts | 326° |
| 2026-05-05 06:01 | 12.56802 | 122.09608 | 25852 ft | 410 kts | 326° |
| 2026-05-05 06:01 | 12.59222 | 122.07925 | 25851 ft | 410 kts | 326° |
| 2026-05-05 06:01 | 12.61642 | 122.06242 | 25851 ft | 410 kts | 326° |
| 2026-05-05 06:01 | 12.64035 | 122.04578 | 25849 ft | 410 kts | 326° |
| 2026-05-05 06:02 | 12.66444 | 122.02903 | 25848 ft | 411 kts | 326° |
| 2026-05-05 06:02 | 12.68845 | 122.01232 | 25848 ft | 411 kts | 326° |
| 2026-05-05 06:02 | 12.71253 | 121.99558 | 25847 ft | 410 kts | 326° |
| 2026-05-05 06:02 | 12.73637 | 121.97897 | 25849 ft | 411 kts | 326° |
| 2026-05-05 06:03 | 12.76039 | 121.96225 | 25855 ft | 418 kts | 326° |
| 2026-05-05 06:03 | 12.78463 | 121.94537 | 25858 ft | 429 kts | 326° |
| 2026-05-05 06:03 | 12.80990 | 121.92776 | 25860 ft | 439 kts | 325° |
| 2026-05-05 06:03 | 12.83521 | 121.91013 | 25863 ft | 449 kts | 325° |
| 2026-05-05 06:04 | 12.86138 | 121.89188 | 25864 ft | 457 kts | 325° |
| 2026-05-05 06:04 | 12.88821 | 121.87318 | 25862 ft | 464 kts | 325° |
| 2026-05-05 06:04 | 12.91517 | 121.85437 | 25863 ft | 466 kts | 325° |
| 2026-05-05 06:04 | 12.94265 | 121.83520 | 25864 ft | 466 kts | 325° |
| 2026-05-05 06:05 | 12.96966 | 121.81636 | 25864 ft | 466 kts | 325° |
| 2026-05-05 06:05 | 12.99660 | 121.79755 | 25865 ft | 466 kts | 325° |
| 2026-05-05 06:05 | 13.01447 | 121.78509 | 25866 ft | 467 kts | 325° |
| 2026-05-05 06:05 | 13.05034 | 121.76003 | 25866 ft | 466 kts | 325° |
| 2026-05-05 06:06 | 13.07720 | 121.74127 | 25866 ft | 466 kts | 325° |
| 2026-05-05 06:06 | 13.10409 | 121.72248 | 25866 ft | 466 kts | 325° |
| 2026-05-05 06:06 | 13.13188 | 121.70306 | 25865 ft | 466 kts | 325° |
| 2026-05-05 06:06 | 13.15897 | 121.68412 | 25865 ft | 466 kts | 325° |
| 2026-05-05 06:07 | 13.18582 | 121.66534 | 25861 ft | 466 kts | 325° |
| 2026-05-05 06:07 | 13.21340 | 121.64604 | 25859 ft | 466 kts | 325° |
| 2026-05-05 06:07 | 13.24053 | 121.62706 | 25701 ft | 466 kts | 325° |
| 2026-05-05 06:07 | 13.26758 | 121.60813 | 25243 ft | 459 kts | 326° |
| 2026-05-05 06:08 | 13.29396 | 121.58965 | 24641 ft | 452 kts | 326° |
| 2026-05-05 06:08 | 13.31979 | 121.57156 | 24046 ft | 446 kts | 326° |
| 2026-05-05 06:08 | 13.34573 | 121.55338 | 23514 ft | 439 kts | 326° |
| 2026-05-05 06:08 | 13.37085 | 121.53578 | 22984 ft | 432 kts | 326° |
| 2026-05-05 06:09 | 13.39600 | 121.51814 | 22309 ft | 429 kts | 326° |
| 2026-05-05 06:09 | 13.42121 | 121.50047 | 21639 ft | 426 kts | 326° |
| 2026-05-05 06:09 | 13.44590 | 121.48316 | 20967 ft | 424 kts | 326° |
| 2026-05-05 06:09 | 13.47010 | 121.46619 | 20364 ft | 420 kts | 326° |
| 2026-05-05 06:10 | 13.49413 | 121.44933 | 19908 ft | 412 kts | 326° |
| 2026-05-05 06:10 | 13.54009 | 121.41707 | 19479 ft | 386 kts | 326° |
| 2026-05-05 06:10 | 13.56211 | 121.40160 | 19322 ft | 373 kts | 326° |
| 2026-05-05 06:11 | 13.58314 | 121.38665 | 19063 ft | 364 kts | 325° |
| 2026-05-05 06:11 | 13.60332 | 121.37169 | 18757 ft | 357 kts | 324° |
| 2026-05-05 06:11 | 13.62337 | 121.35667 | 18401 ft | 352 kts | 324° |
| 2026-05-05 06:11 | 13.63998 | 121.34422 | 18095 ft | 348 kts | 324° |
| 2026-05-05 06:12 | 13.64685 | 121.33908 | 17970 ft | 346 kts | 324° |
| 2026-05-05 06:12 | 13.66615 | 121.32464 | 17628 ft | 342 kts | 325° |
| 2026-05-05 06:12 | 13.68281 | 121.31220 | 17294 ft | 339 kts | 325° |
| 2026-05-05 06:13 | 13.69682 | 121.30174 | 17002 ft | 338 kts | 325° |
| 2026-05-05 06:13 | 13.71576 | 121.28762 | 16623 ft | 336 kts | 325° |
| 2026-05-05 06:13 | 13.73457 | 121.27359 | 16239 ft | 333 kts | 325° |
| 2026-05-05 06:14 | 13.75349 | 121.25948 | 15861 ft | 331 kts | 325° |
| 2026-05-05 06:14 | 13.77204 | 121.24565 | 15504 ft | 329 kts | 325° |
| 2026-05-05 06:14 | 13.79075 | 121.23169 | 15125 ft | 327 kts | 325° |
| 2026-05-05 06:14 | 13.80923 | 121.21790 | 14744 ft | 325 kts | 325° |
| 2026-05-05 06:15 | 13.82742 | 121.20432 | 14364 ft | 323 kts | 325° |
| 2026-05-05 06:15 | 13.84567 | 121.19070 | 13993 ft | 321 kts | 325° |
| 2026-05-05 06:15 | 13.86377 | 121.17718 | 13627 ft | 318 kts | 325° |
| 2026-05-05 06:15 | 13.88162 | 121.16383 | 13257 ft | 316 kts | 325° |
| 2026-05-05 06:16 | 13.89957 | 121.15044 | 12897 ft | 314 kts | 325° |
| 2026-05-05 06:16 | 13.91724 | 121.13724 | 12509 ft | 312 kts | 325° |
| 2026-05-05 06:16 | 13.93500 | 121.12397 | 12105 ft | 310 kts | 325° |
| 2026-05-05 06:16 | 13.95244 | 121.11095 | 11724 ft | 309 kts | 325° |
| 2026-05-05 06:17 | 13.96984 | 121.09793 | 11315 ft | 308 kts | 325° |
| 2026-05-05 06:17 | 13.98734 | 121.08485 | 10884 ft | 307 kts | 325° |
| 2026-05-05 06:17 | 14.00484 | 121.07177 | 10493 ft | 306 kts | 325° |
| 2026-05-05 06:17 | 14.02216 | 121.05883 | 10090 ft | 305 kts | 326° |
| 2026-05-05 06:18 | 14.03937 | 121.04595 | 9685 ft | 304 kts | 325° |
| 2026-05-05 06:18 | 14.05629 | 121.03329 | 9272 ft | 304 kts | 326° |
| 2026-05-05 06:18 | 14.07382 | 121.02020 | 8880 ft | 302 kts | 325° |
| 2026-05-05 06:18 | 14.09086 | 121.00744 | 8540 ft | 300 kts | 325° |
| 2026-05-05 06:19 | 14.10795 | 120.99462 | 8174 ft | 298 kts | 326° |
| 2026-05-05 06:19 | 14.12485 | 120.98198 | 7804 ft | 296 kts | 326° |
| 2026-05-05 06:19 | 14.14139 | 120.96957 | 7450 ft | 293 kts | 326° |
| 2026-05-05 06:19 | 14.15848 | 120.95676 | 7122 ft | 290 kts | 326° |
| 2026-05-05 06:20 | 14.17578 | 120.94440 | 6875 ft | 282 kts | 330° |
| 2026-05-05 06:20 | 14.19262 | 120.93411 | 6623 ft | 277 kts | 332° |
| 2026-05-05 06:20 | 14.20956 | 120.92414 | 6340 ft | 272 kts | 333° |
| 2026-05-05 06:20 | 14.22620 | 120.91439 | 6076 ft | 269 kts | 333° |
| 2026-05-05 06:21 | 14.24293 | 120.90455 | 5799 ft | 265 kts | 333° |
| 2026-05-05 06:21 | 14.25927 | 120.89492 | 5553 ft | 260 kts | 333° |
| 2026-05-05 06:21 | 14.27524 | 120.88548 | 5343 ft | 253 kts | 333° |
| 2026-05-05 06:21 | 14.29124 | 120.87614 | 5175 ft | 245 kts | 333° |
| 2026-05-05 06:22 | 14.30659 | 120.86728 | 5000 ft | 238 kts | 333° |
| 2026-05-05 06:22 | 14.32146 | 120.85870 | 4733 ft | 236 kts | 333° |
| 2026-05-05 06:22 | 14.33654 | 120.84998 | 4450 ft | 235 kts | 333° |
| 2026-05-05 06:22 | 14.35116 | 120.84153 | 4164 ft | 235 kts | 333° |
| 2026-05-05 06:23 | 14.36600 | 120.83293 | 3876 ft | 234 kts | 334° |
| 2026-05-05 06:23 | 14.38088 | 120.82607 | 3575 ft | 230 kts | 354° |
| 2026-05-05 06:23 | 14.39635 | 120.82761 | 3292 ft | 220 kts | 28° |
| 2026-05-05 06:23 | 14.40793 | 120.83733 | 3061 ft | 210 kts | 56° |
| 2026-05-05 06:24 | 14.41568 | 120.85030 | 2859 ft | 204 kts | 63° |
| 2026-05-05 06:24 | 14.42287 | 120.86426 | 2705 ft | 196 kts | 64° |
| 2026-05-05 06:24 | 14.42948 | 120.87682 | 2623 ft | 181 kts | 63° |
| 2026-05-05 06:24 | 14.43567 | 120.88821 | 2404 ft | 174 kts | 62° |
| 2026-05-05 06:25 | 14.44155 | 120.89884 | 2160 ft | 161 kts | 63° |
| 2026-05-05 06:25 | 14.44709 | 120.90879 | 1944 ft | 147 kts | 62° |
| 2026-05-05 06:25 | 14.45207 | 120.91769 | 1764 ft | 133 kts | 64° |
| 2026-05-05 06:25 | 14.45668 | 120.92599 | 1606 ft | 132 kts | 64° |
| 2026-05-05 06:26 | 14.46131 | 120.93431 | 1452 ft | 132 kts | 64° |
| 2026-05-05 06:26 | 14.46593 | 120.94267 | 1295 ft | 132 kts | 62° |
| 2026-05-05 06:26 | 14.47051 | 120.95091 | 1129 ft | 131 kts | 62° |
| 2026-05-05 06:26 | 14.47509 | 120.95915 | 968 ft | 131 kts | 62° |
| 2026-05-05 06:27 | 14.47968 | 120.96738 | 789 ft | 131 kts | 65° |
| 2026-05-05 06:27 | 14.48945 | 120.98493 | 422 ft | 131 kts | 64° |
| 2026-05-05 06:27 | 14.49474 | 120.99446 | 240 ft | 130 kts | 65° |
| 2026-05-05 06:28 | 14.49979 | 121.00378 | 97 ft | 128 kts | 61° |
| 2026-05-05 06:28 | 14.50442 | 121.01199 | 82 ft | 88 kts | 59° |
| 2026-05-05 06:28 | 14.50684 | 121.01628 | 82 ft | 38 kts | 54° |
| 2026-05-05 06:28 | 14.50831 | 121.01771 | 82 ft | 13 kts | 34° |
| 2026-05-05 06:29 | 14.50895 | 121.01781 | 82 ft | 6 kts | 316° |
| 2026-05-05 06:29 | 14.50899 | 121.01736 | 82 ft | 6 kts | 247° |
| 2026-05-05 06:29 | 14.50874 | 121.01687 | 82 ft | 8 kts | 240° |
| 2026-05-05 06:29 | 14.50840 | 121.01627 | 82 ft | 9 kts | 239° |
| 2026-05-05 06:30 | 14.50803 | 121.01560 | 82 ft | 10 kts | 240° |
| 2026-05-05 06:30 | 14.50761 | 121.01485 | 82 ft | 12 kts | 240° |
| 2026-05-05 06:30 | 14.50716 | 121.01403 | 82 ft | 11 kts | 240° |
| 2026-05-05 06:30 | 14.50689 | 121.01348 | 82 ft | 6 kts | 264° |
| 2026-05-05 06:31 | 14.50719 | 121.01314 | 82 ft | 7 kts | 332° |
| 2026-05-05 06:31 | 14.50768 | 121.01286 | 82 ft | 6 kts | 330° |
| 2026-05-05 06:31 | 14.50801 | 121.01266 | 82 ft | 3 kts | 330° |
| 2026-05-05 06:31 | 14.50817 | 121.01257 | 82 ft | 1 kts | 330° |
| 2026-05-05 06:32 | 14.50823 | 121.01253 | 82 ft | 0 kts | 330° |
| 2026-05-05 06:32 | 14.50828 | 121.01250 | 82 ft | 0 kts | 330° |